Time;durP1;ratioP1;P1;durP2;ratioP2;P2;SDS_P1;SDS_P2;PMS_P1;PMS_P2;Temp;Humidity;BMP_temperature;BMP_pressure;BME280_temperature;BME280_humidity;BME280_pressure;Samples;Min_cycle;Max_cycle;Signal;HPM_P1;HPM_P2
2022/08/23 00:02:11;;;;;;;6.50;4.80;;;25.30;58.50;;;;;;6099220;23;20412;-86
2022/08/23 00:04:45;;;;;;;4.87;4.33;;;25.20;58.60;;;;;;6124183;23;20482;-82
2022/08/23 00:07:22;;;;;;;6.20;4.50;;;25.20;58.80;;;;;;6100545;23;20788;-84
2022/08/23 00:09:49;;;;;;;4.00;3.70;;;25.10;59.20;;;;;;6100376;23;20412;-85
2022/08/23 00:12:21;;;;;;;4.27;3.87;;;25.00;59.50;;;;;;6128946;23;20503;-85
2022/08/23 00:14:51;;;;;;;6.00;3.87;;;25.10;59.60;;;;;;6114425;23;20435;-86
2022/08/23 00:17:18;;;;;;;7.40;4.20;;;25.10;59.60;;;;;;6143796;23;20434;-85
2022/08/23 00:19:51;;;;;;;4.23;3.83;;;25.00;59.60;;;;;;6146994;23;20588;-87
2022/08/23 00:22:17;;;;;;;5.53;3.83;;;25.00;59.70;;;;;;6145797;23;20395;-84
2022/08/23 00:24:44;;;;;;;5.20;4.50;;;25.00;60.00;;;;;;6144802;23;20412;-85
2022/08/23 00:27:13;;;;;;;4.80;3.80;;;25.00;61.00;;;;;;6137087;23;20733;-83
2022/08/23 00:29:46;;;;;;;4.93;4.30;;;24.90;60.10;;;;;;6128289;23;20412;-84
2022/08/23 00:32:17;;;;;;;5.03;4.57;;;25.20;60.10;;;;;;6125797;23;20392;-84
2022/08/23 00:34:44;;;;;;;5.20;4.73;;;25.10;62.80;;;;;;6126622;23;20440;-83
2022/08/23 00:37:12;;;;;;;6.73;4.80;;;25.10;65.80;;;;;;6099822;23;20470;-86
2022/08/23 00:39:40;;;;;;;6.40;4.80;;;25.00;66.80;;;;;;6100215;23;20415;-82
2022/08/23 00:48:02;;;;;;;5.83;5.23;;;24.90;68.30;;;;;;6125432;23;20416;-85
2022/08/23 00:50:42;;;;;;;6.37;5.33;;;24.80;68.00;;;;;;6100442;23;20431;-82
2022/08/23 00:53:15;;;;;;;7.37;6.63;;;24.70;67.10;;;;;;6100578;23;20415;-84
2022/08/23 00:55:44;;;;;;;5.40;4.90;;;24.40;67.90;;;;;;6124569;23;20458;-86
2022/08/23 00:58:15;;;;;;;6.83;5.10;;;24.20;68.10;;;;;;6100440;23;20487;-85
2022/08/23 01:00:41;;;;;;;6.87;6.27;;;24.00;69.30;;;;;;6097588;23;20404;-85
2022/08/23 01:03:11;;;;;;;5.83;4.63;;;23.80;69.30;;;;;;6100865;23;20411;-85
2022/08/23 01:06:04;;;;;;;5.87;5.17;;;23.60;70.20;;;;;;6101395;23;20442;-85
2022/08/23 01:08:33;;;;;;;5.53;5.03;;;23.40;72.00;;;;;;6059298;23;20423;-84
2022/08/23 01:11:10;;;;;;;5.77;5.27;;;23.30;72.70;;;;;;6098101;23;20499;-85
2022/08/23 01:13:49;;;;;;;6.80;5.30;;;23.40;73.80;;;;;;6098012;23;20411;-84
2022/08/23 01:16:27;;;;;;;9.03;5.27;;;23.30;74.30;;;;;;6103687;23;20796;-83
2022/08/23 01:18:55;;;;;;;9.50;6.20;;;23.50;73.40;;;;;;6102267;23;20467;-82
2022/08/23 01:21:30;;;;;;;10.27;5.63;;;23.60;72.90;;;;;;6103615;23;20449;-85
2022/08/23 01:24:02;;;;;;;7.47;6.23;;;23.50;73.40;;;;;;6128214;23;20414;-85
2022/08/23 01:26:34;;;;;;;8.30;5.63;;;23.20;75.00;;;;;;6096666;23;20431;-85
2022/08/23 01:29:03;;;;;;;8.77;5.80;;;23.10;77.60;;;;;;6098459;23;20466;-84
2022/08/23 01:31:31;;;;;;;9.50;6.40;;;23.00;78.80;;;;;;6096883;23;21357;-83
2022/08/23 01:34:06;;;;;;;7.50;5.70;;;23.00;80.30;;;;;;6120627;23;20900;-85
2022/08/23 01:36:34;;;;;;;8.30;5.97;;;23.00;80.80;;;;;;6093917;23;20534;-85
2022/08/23 01:39:06;;;;;;;7.57;5.53;;;22.90;81.30;;;;;;6123159;23;20414;-85
2022/08/23 01:41:33;;;;;;;6.70;6.00;;;23.00;82.10;;;;;;6122189;23;20403;-84
2022/08/23 01:44:00;;;;;;;8.73;4.90;;;23.00;81.20;;;;;;6097008;23;20430;-85
2022/08/23 01:46:27;;;;;;;5.87;5.37;;;23.00;81.40;;;;;;6096588;23;20445;-87
2022/08/23 01:48:54;;;;;;;5.53;4.97;;;22.90;82.50;;;;;;6097040;23;20427;-83
2022/08/23 01:51:21;;;;;;;7.03;5.20;;;22.80;82.20;;;;;;6124073;23;20420;-85
2022/08/23 01:53:49;;;;;;;6.80;4.83;;;22.60;83.10;;;;;;6103376;23;20412;-86
2022/08/23 01:56:21;;;;;;;7.43;4.33;;;22.50;84.40;;;;;;6096578;23;20487;-85
2022/08/23 01:58:53;;;;;;;5.57;4.67;;;22.40;85.40;;;;;;6094734;23;20381;-82
2022/08/23 02:01:20;;;;;;;8.10;4.90;;;22.30;86.00;;;;;;6092892;23;20444;-84
2022/08/23 02:03:47;;;;;;;8.20;5.30;;;22.40;86.90;;;;;;6092755;23;20921;-86
2022/08/23 02:06:15;;;;;;;7.07;5.60;;;22.30;87.30;;;;;;6092403;23;20446;-84
2022/08/23 02:09:04;;;;;;;7.57;4.67;;;22.30;87.50;;;;;;6093462;23;21295;-85
2022/08/23 02:11:38;;;;;;;4.70;3.90;;;22.40;85.00;;;;;;6094804;23;20412;-84
2022/08/23 02:14:09;;;;;;;4.93;4.40;;;22.30;85.50;;;;;;6092153;23;20480;-84
2022/08/23 02:16:44;;;;;;;5.30;4.80;;;22.30;85.80;;;;;;6093727;23;20452;-85
2022/08/23 02:19:24;;;;;;;4.93;4.43;;;22.40;85.40;;;;;;6092577;23;20411;-85
2022/08/23 02:21:51;;;;;;;4.77;4.37;;;22.30;84.60;;;;;;6093367;23;20420;-84
2022/08/23 02:24:22;;;;;;;5.27;4.33;;;22.20;84.30;;;;;;6094359;23;20426;-85
2022/08/23 02:26:52;;;;;;;4.77;3.70;;;22.20;84.00;;;;;;6094265;23;20971;-85
2022/08/23 02:29:24;;;;;;;6.37;4.57;;;22.30;84.10;;;;;;6096470;23;20397;-84
2022/08/23 02:31:50;;;;;;;3.90;3.50;;;22.30;83.50;;;;;;6093788;23;20417;-85
2022/08/23 02:34:18;;;;;;;6.60;4.17;;;22.20;84.10;;;;;;6095939;23;20405;-86
2022/08/23 02:36:44;;;;;;;4.77;4.37;;;22.30;84.10;;;;;;6093785;23;20468;-85
2022/08/23 02:39:13;;;;;;;7.23;4.73;;;22.30;84.80;;;;;;6096963;23;20955;-86
2022/08/23 02:41:40;;;;;;;5.20;4.63;;;22.20;85.20;;;;;;6094094;23;20892;-85
2022/08/23 02:44:07;;;;;;;5.50;4.10;;;22.20;86.20;;;;;;6095353;23;20412;-84
2022/08/23 02:46:34;;;;;;;4.70;4.30;;;22.10;86.40;;;;;;6095022;23;20789;-83
2022/08/23 02:49:02;;;;;;;5.63;4.33;;;22.00;86.90;;;;;;6096450;23;20399;-82
2022/08/23 02:51:29;;;;;;;6.87;4.27;;;22.10;86.80;;;;;;6096791;23;20826;-82
2022/08/23 02:53:56;;;;;;;4.47;4.07;;;22.10;86.80;;;;;;6096366;23;20417;-82
2022/08/23 02:56:23;;;;;;;5.53;5.03;;;22.10;87.00;;;;;;6096188;23;20445;-83
2022/08/23 02:58:50;;;;;;;5.33;4.80;;;22.30;87.80;;;;;;6097313;23;20477;-85
2022/08/23 03:01:24;;;;;;;5.37;4.87;;;22.30;88.00;;;;;;6096326;23;20419;-82
2022/08/23 03:03:51;;;;;;;5.83;4.50;;;22.20;88.20;;;;;;6097191;23;20412;-85
2022/08/23 03:06:18;;;;;;;5.20;4.80;;;22.10;88.90;;;;;;6101275;23;20450;-83
2022/08/23 03:08:52;;;;;;;5.70;5.10;;;22.10;89.40;;;;;;6110698;23;20408;-86
2022/08/23 03:11:20;;;;;;;5.87;5.30;;;22.00;88.70;;;;;;6116229;23;20412;-85
2022/08/23 03:13:47;;;;;;;5.50;4.10;;;21.90;89.60;;;;;;6115834;23;20457;-85
2022/08/23 03:16:16;;;;;;;7.37;4.97;;;21.90;89.90;;;;;;6116184;23;20456;-88
2022/08/23 03:18:43;;;;;;;5.10;4.60;;;21.70;90.10;;;;;;6116647;23;20432;-85
2022/08/23 03:21:12;;;;;;;5.50;5.00;;;21.70;90.50;;;;;;6115797;23;20412;-87
2022/08/23 03:23:39;;;;;;;5.83;5.23;;;21.60;90.50;;;;;;6114010;23;20405;-87
2022/08/23 03:26:08;;;;;;;5.60;5.20;;;21.70;90.60;;;;;;6111200;23;20757;-83
2022/08/23 03:28:36;;;;;;;7.27;5.60;;;21.60;90.60;;;;;;6100683;23;20412;-83
2022/08/23 03:31:04;;;;;;;5.93;5.43;;;21.30;91.40;;;;;;6096436;23;20417;-84
2022/08/23 03:33:31;;;;;;;5.87;5.27;;;21.20;91.50;;;;;;6096044;23;20495;-84
2022/08/23 03:36:00;;;;;;;6.27;5.40;;;21.20;91.60;;;;;;6094261;23;20440;-84
2022/08/23 03:38:27;;;;;;;6.07;5.47;;;21.10;91.80;;;;;;6068339;23;20453;-84
2022/08/23 03:40:54;;;;;;;5.50;5.10;;;21.00;91.70;;;;;;6092151;23;20456;-84
2022/08/23 03:43:21;;;;;;;6.00;5.40;;;21.20;91.60;;;;;;6094458;23;20473;-84
2022/08/23 03:45:49;;;;;;;6.17;5.67;;;21.10;91.80;;;;;;6091430;23;20440;-87
2022/08/23 03:48:16;;;;;;;8.90;5.50;;;21.10;92.00;;;;;;6090642;23;20423;-84
2022/08/23 03:50:44;;;;;;;6.73;5.30;;;21.10;92.00;;;;;;6091750;23;20519;-84
2022/08/23 03:53:11;;;;;;;6.13;5.53;;;21.10;92.20;;;;;;6091805;23;20423;-87
2022/08/23 03:55:40;;;;;;;5.40;4.90;;;21.20;92.00;;;;;;6091466;23;20725;-84
2022/08/23 03:58:07;;;;;;;5.97;5.37;;;21.20;92.20;;;;;;6092645;23;20511;-86
2022/08/23 04:00:34;;;;;;;8.20;5.90;;;21.20;92.20;;;;;;6090857;23;20999;-85
2022/08/23 04:03:01;;;;;;;9.43;5.37;;;21.20;92.40;;;;;;6091886;23;20420;-85
2022/08/23 04:05:28;;;;;;;6.43;5.67;;;21.40;92.20;;;;;;6091894;23;20432;-85
2022/08/23 04:07:55;;;;;;;6.30;5.70;;;21.50;92.10;;;;;;6091594;23;20445;-85
2022/08/23 04:10:22;;;;;;;5.97;5.43;;;21.50;92.10;;;;;;6093359;23;20412;-86
2022/08/23 04:12:51;;;;;;;7.63;4.90;;;21.50;91.80;;;;;;6094203;23;20416;-83
2022/08/23 04:15:19;;;;;;;5.23;4.83;;;21.50;91.50;;;;;;6092773;23;20470;-82
2022/08/23 04:17:46;;;;;;;6.37;5.10;;;21.40;91.10;;;;;;6091161;23;20428;-85
2022/08/23 04:20:13;;;;;;;7.60;6.40;;;21.30;91.10;;;;;;6095966;23;20417;-86
2022/08/23 04:22:40;;;;;;;5.40;4.70;;;21.20;90.80;;;;;;6104188;23;20731;-87
2022/08/23 04:25:08;;;;;;;6.57;5.53;;;21.30;90.60;;;;;;6104705;23;20517;-85
2022/08/23 04:27:35;;;;;;;6.10;5.50;;;21.30;90.60;;;;;;6105559;23;20945;-87
2022/08/23 04:30:03;;;;;;;7.83;5.50;;;21.50;90.50;;;;;;6104335;23;20413;-82
2022/08/23 04:32:30;;;;;;;8.50;6.03;;;21.40;90.40;;;;;;6103165;23;20420;-84
2022/08/23 04:34:57;;;;;;;6.50;5.40;;;21.40;90.40;;;;;;6101629;23;20487;-85
2022/08/23 04:37:24;;;;;;;6.60;5.90;;;21.50;90.50;;;;;;6105313;23;20417;-87
2022/08/23 04:42:37;;;;;;;6.53;5.13;;;21.40;90.20;;;;;;6097531;23;20396;-85
2022/08/23 04:45:04;;;;;;;5.90;5.37;;;21.40;90.20;;;;;;6097289;23;20464;-82
2022/08/23 04:47:31;;;;;;;6.43;6.00;;;21.30;89.90;;;;;;6095607;23;20515;-83
2022/08/23 04:49:58;;;;;;;5.90;5.30;;;21.20;90.10;;;;;;6104708;23;20412;-87
2022/08/23 04:52:25;;;;;;;7.33;5.93;;;21.20;90.30;;;;;;6110081;23;20428;-87
2022/08/23 04:54:51;;;;;;;12.30;11.10;;;21.30;90.10;;;;;;6102848;23;20426;-83
2022/08/23 04:57:19;;;;;;;8.70;6.20;;;21.20;90.50;;;;;;6091468;23;20439;-84
2022/08/23 04:59:46;;;;;;;7.50;6.70;;;21.30;90.30;;;;;;6090631;23;20416;-85
2022/08/23 05:02:15;;;;;;;7.80;7.20;;;21.20;90.20;;;;;;6090851;23;20508;-84
2022/08/23 05:04:45;;;;;;;7.43;6.73;;;21.30;90.20;;;;;;6092422;23;20408;-85
2022/08/23 05:07:18;;;;;;;7.37;6.77;;;21.30;90.10;;;;;;6091965;23;20444;-84
2022/08/23 05:09:45;;;;;;;7.10;6.40;;;21.20;90.10;;;;;;6098270;23;20415;-85
2022/08/23 05:12:14;;;;;;;6.80;6.20;;;21.20;90.20;;;;;;6102136;23;20423;-85
2022/08/23 05:14:48;;;;;;;7.23;6.53;;;21.20;90.40;;;;;;6090152;23;20448;-83
2022/08/23 05:17:17;;;;;;;7.30;6.60;;;21.10;90.50;;;;;;6087296;23;20959;-86
2022/08/23 05:19:47;;;;;;;7.13;6.27;;;21.00;90.70;;;;;;6087563;23;20416;-82
2022/08/23 05:22:16;;;;;;;7.10;6.43;;;21.10;90.90;;;;;;6087924;23;20427;-84
2022/08/23 05:24:43;;;;;;;7.20;6.50;;;21.20;90.70;;;;;;6088900;23;20423;-86
2022/08/23 05:27:10;;;;;;;6.80;6.27;;;21.30;90.60;;;;;;6089174;23;20441;-82
2022/08/23 05:29:39;;;;;;;9.10;6.87;;;21.20;90.70;;;;;;6087949;23;20413;-85
2022/08/23 05:32:06;;;;;;;6.90;6.30;;;21.20;90.80;;;;;;6088651;23;20451;-86
2022/08/23 05:34:33;;;;;;;8.70;7.00;;;21.30;90.80;;;;;;6088813;23;20413;-83
2022/08/23 05:37:02;;;;;;;6.83;6.23;;;21.40;90.60;;;;;;6086406;23;20564;-83
2022/08/23 05:39:32;;;;;;;7.67;6.43;;;21.40;90.70;;;;;;6088647;23;20416;-84
2022/08/23 05:42:07;;;;;;;7.87;7.13;;;21.30;90.70;;;;;;6088915;23;20448;-85
2022/08/23 05:44:38;;;;;;;6.57;6.00;;;21.20;90.90;;;;;;6088025;23;20419;-85
2022/08/23 05:47:09;;;;;;;7.13;6.47;;;21.20;91.00;;;;;;6088546;23;20440;-85
2022/08/23 05:49:38;;;;;;;6.63;6.13;;;21.20;91.50;;;;;;6089584;23;20459;-84
2022/08/23 05:52:07;;;;;;;7.07;6.47;;;21.40;92.10;;;;;;6089872;23;20404;-84
2022/08/23 05:54:34;;;;;;;7.27;6.70;;;21.40;92.40;;;;;;6089837;23;20440;-84
2022/08/23 05:57:01;;;;;;;7.93;6.97;;;21.40;92.80;;;;;;6107376;23;20447;-85
2022/08/23 05:59:28;;;;;;;7.30;6.70;;;21.20;93.00;;;;;;6122193;23;20416;-87
2022/08/23 06:01:57;;;;;;;7.10;6.60;;;21.30;93.10;;;;;;6121158;23;20443;-85
2022/08/23 06:04:23;;;;;;;7.30;6.70;;;21.40;92.80;;;;;;6121440;23;20446;-87
2022/08/23 06:06:57;;;;;;;7.30;6.60;;;21.60;92.60;;;;;;6123915;23;20451;-83
2022/08/23 06:09:26;;;;;;;6.80;6.20;;;22.70;92.10;;;;;;6123607;23;20792;-83
2022/08/23 06:11:58;;;;;;;7.57;6.20;;;25.70;84.50;;;;;;6098644;23;20420;-83
2022/08/23 06:14:30;;;;;;;6.43;5.83;;;28.30;72.60;;;;;;6098346;23;20439;-85
2022/08/23 06:16:59;;;;;;;6.47;5.77;;;30.30;60.60;;;;;;6121526;23;20439;-89
2022/08/23 06:19:26;;;;;;;4.80;4.40;;;31.40;56.10;;;;;;6096024;23;20414;-84
2022/08/23 06:21:54;;;;;;;5.80;5.03;;;31.40;54.70;;;;;;6095297;23;20479;-86
2022/08/23 06:24:22;;;;;;;6.80;5.47;;;32.20;53.60;;;;;;6097548;23;20419;-86
2022/08/23 06:26:50;;;;;;;6.07;5.30;;;33.00;50.90;;;;;;6119260;23;20543;-84
2022/08/23 06:29:19;;;;;;;5.83;5.27;;;32.90;50.20;;;;;;6121754;23;20411;-85
2022/08/23 06:31:48;;;;;;;5.37;4.93;;;32.80;49.00;;;;;;6094484;23;20419;-85
2022/08/23 06:34:40;;;;;;;5.50;5.00;;;32.00;48.60;;;;;;6120479;23;20990;-85
2022/08/23 06:37:16;;;;;;;5.10;4.60;;;32.00;49.10;;;;;;6078922;23;20439;-82
2022/08/23 06:40:27;;;;;;;5.50;5.00;;;32.20;48.50;;;;;;6096882;23;20407;-84
2022/08/23 06:47:31;;;;;;;5.87;5.37;;;32.40;46.80;;;;;;6038283;23;20438;-85
2022/08/23 06:50:00;;;;;;;5.47;4.70;;;32.30;47.00;;;;;;6052524;23;20509;-86
2022/08/23 06:52:27;;;;;;;5.33;4.73;;;32.20;46.30;;;;;;6125021;23;20446;-85
2022/08/23 06:54:54;;;;;;;4.93;4.53;;;31.40;46.20;;;;;;6115663;23;20411;-87
2022/08/23 06:57:21;;;;;;;4.63;4.20;;;31.40;47.50;;;;;;6140174;23;20439;-86
2022/08/23 06:59:52;;;;;;;7.67;4.63;;;32.30;46.30;;;;;;6126622;23;20507;-84
2022/08/23 07:02:21;;;;;;;5.67;4.97;;;32.20;46.00;;;;;;6123899;23;20473;-85
2022/08/23 07:04:54;;;;;;;5.60;4.97;;;33.00;45.20;;;;;;6121333;23;20470;-87
2022/08/23 07:07:33;;;;;;;4.50;4.13;;;34.00;42.50;;;;;;6120807;23;20446;-85
2022/08/23 07:10:04;;;;;;;4.70;4.30;;;34.10;42.20;;;;;;6119754;23;20411;-85
2022/08/23 07:12:41;;;;;;;4.70;4.00;;;34.20;41.70;;;;;;6122200;23;20447;-85
2022/08/23 07:15:13;;;;;;;6.90;3.60;;;34.10;41.50;;;;;;6121880;23;20435;-88
2022/08/23 07:17:40;;;;;;;4.00;3.70;;;34.50;40.90;;;;;;6121267;23;20412;-84
2022/08/23 07:20:07;;;;;;;6.13;3.63;;;35.10;39.60;;;;;;6120066;23;20897;-86
2022/08/23 07:22:34;;;;;;;5.17;3.53;;;34.90;39.50;;;;;;6122985;23;20416;-87
2022/08/23 07:25:02;;;;;;;5.20;4.00;;;35.30;39.00;;;;;;6123569;23;20446;-88
2022/08/23 07:27:29;;;;;;;3.97;3.63;;;35.70;38.20;;;;;;6123184;23;20439;-87
2022/08/23 07:29:56;;;;;;;4.23;3.10;;;36.30;36.90;;;;;;6121322;23;20407;-87
2022/08/23 07:32:23;;;;;;;4.20;3.90;;;36.00;36.70;;;;;;6120208;23;20504;-85
2022/08/23 07:34:54;;;;;;;3.87;3.47;;;35.20;37.30;;;;;;6120356;23;20408;-85
2022/08/23 07:37:21;;;;;;;3.93;3.57;;;35.30;37.60;;;;;;6119356;23;20470;-84
2022/08/23 07:39:51;;;;;;;4.13;3.70;;;35.20;37.60;;;;;;6120179;23;20602;-86
2022/08/23 07:42:18;;;;;;;3.70;3.40;;;35.40;37.70;;;;;;6122166;23;20494;-85
2022/08/23 07:44:47;;;;;;;3.73;3.33;;;34.40;38.20;;;;;;6119692;23;20419;-83
2022/08/23 07:47:19;;;;;;;4.53;3.87;;;34.00;39.50;;;;;;6120332;23;20443;-85
2022/08/23 07:49:48;;;;;;;4.23;3.73;;;35.20;38.00;;;;;;6120438;23;20750;-84
2022/08/23 07:52:17;;;;;;;4.07;3.70;;;35.50;37.80;;;;;;6120428;23;20400;-86
2022/08/23 07:54:46;;;;;;;4.30;3.57;;;36.30;36.40;;;;;;6095115;23;20492;-85
2022/08/23 07:57:15;;;;;;;3.80;3.50;;;36.50;35.90;;;;;;6089831;23;20428;-87
2022/08/23 07:59:47;;;;;;;4.23;3.87;;;36.30;36.20;;;;;;6088787;23;20757;-86
2022/08/23 08:02:31;;;;;;;4.13;3.60;;;36.10;36.20;;;;;;6088572;23;20456;-86
2022/08/23 08:05:00;;;;;;;5.50;3.93;;;36.20;36.50;;;;;;6090211;23;20440;-83
2022/08/23 08:07:27;;;;;;;4.20;3.80;;;36.50;35.80;;;;;;6088692;23;20512;-86
2022/08/23 08:10:00;;;;;;;3.90;3.50;;;36.30;35.70;;;;;;6092357;23;20480;-85
2022/08/23 08:12:32;;;;;;;3.53;3.27;;;36.70;35.70;;;;;;6095747;23;20420;-82
2022/08/23 08:14:59;;;;;;;4.40;3.97;;;36.90;35.20;;;;;;6091213;23;20413;-86
2022/08/23 08:17:34;;;;;;;5.77;4.20;;;37.00;35.00;;;;;;6089165;23;20413;-82
2022/08/23 08:20:01;;;;;;;4.10;3.80;;;37.90;34.00;;;;;;6090555;23;20428;-86
2022/08/23 08:22:28;;;;;;;4.87;4.03;;;37.70;33.50;;;;;;6090236;23;20452;-88
2022/08/23 08:25:00;;;;;;;4.10;3.13;;;37.40;33.90;;;;;;6090218;23;20479;-84
2022/08/23 08:27:37;;;;;;;4.50;3.30;;;38.10;33.00;;;;;;6091815;23;21010;-85
2022/08/23 08:30:06;;;;;;;4.07;3.67;;;38.70;32.60;;;;;;6091950;23;21094;-86
2022/08/23 08:32:37;;;;;;;4.10;3.70;;;38.60;31.90;;;;;;6087980;23;20439;-88
2022/08/23 08:35:13;;;;;;;4.47;3.73;;;38.20;32.50;;;;;;6088689;23;20504;-85
2022/08/23 08:37:49;;;;;;;5.93;3.50;;;37.80;32.60;;;;;;6102679;23;20424;-83
2022/08/23 08:40:27;;;;;;;5.73;3.97;;;38.10;32.60;;;;;;6092811;23;20479;-85
2022/08/23 08:43:10;;;;;;;4.33;3.93;;;38.50;32.40;;;;;;6092179;23;20377;-84
2022/08/23 08:46:03;;;;;;;4.00;3.60;;;38.40;32.20;;;;;;6090447;23;20828;-86
2022/08/23 08:48:39;;;;;;;5.67;3.70;;;38.20;32.00;;;;;;6089278;23;20421;-85
2022/08/23 08:51:36;;;;;;;5.23;4.70;;;37.40;33.00;;;;;;6088546;23;20385;-86
2022/08/23 08:54:08;;;;;;;4.93;3.67;;;37.40;33.00;;;;;;6087505;23;20420;-85
2022/08/23 08:56:38;;;;;;;4.47;4.07;;;37.20;33.20;;;;;;6098225;23;20446;-84
2022/08/23 08:59:14;;;;;;;5.30;4.33;;;37.80;32.30;;;;;;6117497;23;20979;-87
2022/08/23 09:01:41;;;;;;;9.20;5.07;;;38.00;32.20;;;;;;6092048;23;20942;-88
2022/08/23 09:04:11;;;;;;;4.23;3.40;;;37.70;32.50;;;;;;6093636;23;20420;-83
2022/08/23 09:07:07;;;;;;;5.20;3.50;;;37.90;32.20;;;;;;6092574;23;20455;-85
2022/08/23 09:09:55;;;;;;;4.30;3.80;;;38.10;31.70;;;;;;6091295;23;21254;-85
2022/08/23 09:12:50;;;;;;;4.37;3.97;;;38.00;32.20;;;;;;6120369;23;20400;-87
2022/08/23 09:15:33;;;;;;;4.30;3.87;;;37.90;32.20;;;;;;6095513;23;20436;-86
2022/08/23 09:18:12;;;;;;;3.67;3.37;;;37.30;32.50;;;;;;6093586;23;20419;-84
2022/08/23 09:20:44;;;;;;;7.10;3.90;;;37.90;32.40;;;;;;6092787;23;20478;-84
2022/08/23 09:23:20;;;;;;;5.03;3.30;;;37.70;32.30;;;;;;6121599;23;20380;-81
2022/08/23 09:26:01;;;;;;;4.60;3.40;;;37.50;32.70;;;;;;6094991;23;20466;-85
2022/08/23 09:28:33;;;;;;;4.60;3.83;;;37.00;33.30;;;;;;6097313;23;20534;-84
2022/08/23 09:31:00;;;;;;;4.27;3.87;;;37.00;33.20;;;;;;6095371;23;20419;-85
2022/08/23 09:33:40;;;;;;;4.47;4.03;;;36.80;33.50;;;;;;6097995;23;20419;-83
2022/08/23 09:36:25;;;;;;;5.37;3.83;;;36.70;33.70;;;;;;6096855;23;20511;-86
2022/08/23 09:38:56;;;;;;;5.07;3.90;;;36.30;34.20;;;;;;6104740;23;20426;-87
2022/08/23 09:41:26;;;;;;;5.30;3.10;;;36.30;34.60;;;;;;6108283;23;20487;-82
2022/08/23 09:43:54;;;;;;;4.63;4.10;;;36.50;34.50;;;;;;6096608;23;20422;-84
2022/08/23 09:46:27;;;;;;;4.50;3.23;;;36.80;33.60;;;;;;6096136;23;20435;-83
2022/08/23 09:48:57;;;;;;;4.57;3.20;;;37.80;33.30;;;;;;6107022;23;20906;-84
2022/08/23 09:51:33;;;;;;;3.83;3.23;;;38.00;32.60;;;;;;6103415;23;20478;-84
2022/08/23 09:54:18;;;;;;;4.00;3.60;;;37.70;32.70;;;;;;6129424;23;20433;-82
2022/08/23 09:56:56;;;;;;;5.53;3.20;;;38.00;32.60;;;;;;6097593;23;20451;-83
2022/08/23 09:59:44;;;;;;;3.60;3.30;;;38.20;32.20;;;;;;6099712;23;20504;-84
2022/08/23 10:02:24;;;;;;;3.07;2.80;;;38.10;33.30;;;;;;6098845;23;20415;-84
2022/08/23 10:05:06;;;;;;;8.30;3.57;;;37.60;33.30;;;;;;6100078;23;20451;-82
2022/08/23 10:07:37;;;;;;;5.97;3.70;;;37.10;33.80;;;;;;6100619;23;20426;-82
2022/08/23 10:10:28;;;;;;;7.10;3.87;;;37.90;32.60;;;;;;6100446;23;20472;-84
2022/08/23 10:12:57;;;;;;;3.87;3.17;;;37.90;32.20;;;;;;6100916;23;20486;-82
2022/08/23 10:15:42;;;;;;;43.00;10.27;;;37.20;33.30;;;;;;6103208;23;20448;-83
2022/08/23 10:18:34;;;;;;;4.30;3.90;;;37.50;33.40;;;;;;6110019;23;20422;-82
2022/08/23 10:21:19;;;;;;;4.30;3.13;;;38.10;32.80;;;;;;6099990;23;20923;-82
2022/08/23 10:24:10;;;;;;;4.27;3.40;;;38.30;32.30;;;;;;6105168;23;20412;-85
2022/08/23 10:26:44;;;;;;;4.67;4.03;;;37.80;32.60;;;;;;6114044;23;20440;-86
2022/08/23 10:29:37;;;;;;;4.53;3.57;;;37.80;33.20;;;;;;6118870;23;20473;-85
2022/08/23 10:32:13;;;;;;;4.70;4.07;;;37.20;33.10;;;;;;6116873;23;20437;-84
2022/08/23 10:35:02;;;;;;;7.03;3.60;;;37.60;32.90;;;;;;6117792;23;20451;-84
2022/08/23 10:37:35;;;;;;;4.10;3.70;;;37.90;32.20;;;;;;6117438;23;20518;-85
2022/08/23 10:40:05;;;;;;;5.30;3.80;;;37.40;32.50;;;;;;6118473;23;20400;-87
2022/08/23 10:42:42;;;;;;;4.50;4.00;;;37.10;32.90;;;;;;6113394;23;20443;-84
2022/08/23 10:45:31;;;;;;;5.13;4.00;;;36.70;33.60;;;;;;6103126;23;20456;-83
2022/08/23 10:48:19;;;;;;;4.73;3.60;;;36.30;33.90;;;;;;6094967;23;20441;-85
2022/08/23 10:51:11;;;;;;;6.47;3.33;;;36.00;34.50;;;;;;6103121;23;20444;-85
2022/08/23 10:53:47;;;;;;;8.50;3.53;;;36.00;34.50;;;;;;6104557;23;20542;-83
2022/08/23 10:56:19;;;;;;;5.40;3.67;;;36.10;34.60;;;;;;6103319;23;20535;-84
2022/08/23 10:59:15;;;;;;;7.10;3.77;;;36.20;33.90;;;;;;6102218;23;20417;-86
2022/08/23 11:01:49;;;;;;;7.80;3.70;;;35.90;34.40;;;;;;6101418;23;20413;-84
2022/08/23 11:04:25;;;;;;;6.10;3.60;;;36.00;34.30;;;;;;6102639;23;20412;-83
2022/08/23 11:06:54;;;;;;;3.60;3.10;;;35.70;34.80;;;;;;6100907;23;20542;-84
2022/08/23 11:09:21;;;;;;;6.07;3.63;;;35.70;35.20;;;;;;6098816;23;20440;-85
2022/08/23 11:12:26;;;;;;;5.40;3.57;;;36.20;34.70;;;;;;6101980;23;20423;-84
2022/08/23 11:15:01;;;;;;;3.60;3.30;;;36.20;35.00;;;;;;6102460;23;20412;-84
2022/08/23 11:17:40;;;;;;;6.93;3.60;;;36.10;35.30;;;;;;6100924;23;20408;-84
2022/08/23 11:20:11;;;;;;;5.13;3.20;;;36.00;34.70;;;;;;6099072;23;20421;-84
2022/08/23 11:22:56;;;;;;;4.40;3.37;;;36.00;34.80;;;;;;6101891;23;20499;-84
2022/08/23 11:25:23;;;;;;;4.80;3.40;;;36.20;34.10;;;;;;6099622;23;20421;-84
2022/08/23 11:28:22;;;;;;;6.37;3.40;;;36.10;34.20;;;;;;6100522;23;20420;-84
2022/08/23 11:30:56;;;;;;;5.97;3.27;;;36.10;34.40;;;;;;6100151;23;20405;-84
2022/08/23 11:33:58;;;;;;;4.50;2.97;;;36.60;34.00;;;;;;6103108;23;20392;-86
2022/08/23 11:36:26;;;;;;;3.50;3.17;;;36.10;34.00;;;;;;6102479;23;21059;-84
2022/08/23 11:38:54;;;;;;;4.00;3.40;;;36.60;33.90;;;;;;6101722;23;20418;-85
2022/08/23 11:41:29;;;;;;;5.57;3.40;;;36.60;33.60;;;;;;6103115;23;20412;-83
2022/08/23 11:44:04;;;;;;;3.20;2.90;;;37.20;32.30;;;;;;6116670;23;20404;-84
2022/08/23 11:46:49;;;;;;;3.50;2.87;;;37.00;32.80;;;;;;6105809;23;20450;-84
2022/08/23 11:49:29;;;;;;;3.57;2.77;;;36.50;33.20;;;;;;6099613;23;20523;-84
2022/08/23 11:52:10;;;;;;;3.03;2.73;;;36.20;33.30;;;;;;6103067;23;20479;-82
2022/08/23 11:54:56;;;;;;;3.57;2.70;;;37.40;32.30;;;;;;6100629;23;20416;-83
2022/08/23 11:57:49;;;;;;;2.40;2.27;;;37.70;31.30;;;;;;6106578;23;20423;-84
2022/08/23 12:00:57;;;;;;;3.50;2.67;;;37.60;31.30;;;;;;6117893;23;20396;-84
2022/08/23 12:03:53;;;;;;;4.20;3.00;;;36.80;32.00;;;;;;6101930;23;20450;-83
2022/08/23 12:06:51;;;;;;;4.57;2.97;;;37.80;31.30;;;;;;6112551;23;20432;-84
2022/08/23 12:09:25;;;;;;;4.07;2.93;;;36.80;32.00;;;;;;6108606;23;20433;-85
2022/08/23 12:12:00;;;;;;;3.63;3.33;;;36.60;32.90;;;;;;6101597;23;20476;-84
2022/08/23 12:14:49;;;;;;;4.77;2.93;;;36.50;32.60;;;;;;6110758;23;20412;-84
2022/08/23 12:17:25;;;;;;;5.20;3.23;;;36.20;33.20;;;;;;6103861;23;20393;-84
2022/08/23 12:20:08;;;;;;;6.57;3.27;;;35.20;34.10;;;;;;6101957;23;20428;-85
2022/08/23 12:23:03;;;;;;;3.47;2.83;;;35.00;34.80;;;;;;6106046;23;20412;-84
2022/08/23 12:25:31;;;;;;;5.33;3.37;;;34.70;35.00;;;;;;6104673;23;20527;-84
2022/08/23 12:28:28;;;;;;;3.30;3.00;;;34.30;35.70;;;;;;6102651;23;20442;-82
2022/08/23 12:31:05;;;;;;;3.53;3.13;;;33.90;36.30;;;;;;6104010;23;20397;-82
2022/08/23 12:33:44;;;;;;;3.50;2.90;;;34.40;35.70;;;;;;6103021;23;20463;-84
2022/08/23 12:36:55;;;;;;;4.97;3.30;;;34.40;35.30;;;;;;6101693;23;20428;-84
2022/08/23 12:39:35;;;;;;;5.40;2.93;;;34.30;35.60;;;;;;6103274;23;20536;-83
2022/08/23 12:42:12;;;;;;;4.47;3.20;;;34.70;35.20;;;;;;6105738;23;20892;-83
2022/08/23 12:44:42;;;;;;;4.27;3.23;;;34.40;36.00;;;;;;6102603;23;20472;-85
2022/08/23 12:47:19;;;;;;;3.33;2.60;;;33.90;36.10;;;;;;6101601;23;20408;-84
2022/08/23 12:50:08;;;;;;;5.03;3.30;;;33.70;36.70;;;;;;6111628;23;20428;-84
2022/08/23 12:52:40;;;;;;;4.43;2.83;;;33.70;36.60;;;;;;6119867;23;20377;-87
2022/08/23 12:55:36;;;;;;;3.00;2.60;;;33.70;36.80;;;;;;6114743;23;21976;-86
2022/08/23 12:58:08;;;;;;;3.93;3.23;;;34.00;36.30;;;;;;6116072;23;20468;-82
2022/08/23 13:01:04;;;;;;;2.77;2.57;;;34.10;36.90;;;;;;6119969;23;20377;-85
2022/08/23 13:03:40;;;;;;;3.20;2.80;;;34.10;36.50;;;;;;6119393;23;20409;-86
2022/08/23 13:06:20;;;;;;;3.93;3.10;;;34.00;36.80;;;;;;6117134;23;20433;-85
2022/08/23 13:09:00;;;;;;;3.50;2.97;;;33.80;36.40;;;;;;6114685;23;20428;-84
2022/08/23 13:11:37;;;;;;;4.33;3.43;;;33.70;37.00;;;;;;6116513;23;20424;-84
2022/08/23 13:14:28;;;;;;;3.90;3.00;;;33.70;37.10;;;;;;6116227;23;20415;-87
2022/08/23 13:17:23;;;;;;;4.87;3.30;;;33.80;36.80;;;;;;6114694;23;20428;-84
2022/08/23 13:20:20;;;;;;;3.07;2.77;;;34.10;36.80;;;;;;6118432;23;20483;-86
2022/08/23 13:23:06;;;;;;;3.80;3.00;;;34.40;36.40;;;;;;6116372;23;20495;-85
2022/08/23 13:25:42;;;;;;;4.53;3.50;;;34.40;36.20;;;;;;6106061;23;20464;-84
2022/08/23 13:28:28;;;;;;;3.27;2.63;;;34.10;36.00;;;;;;6108514;23;20416;-89
2022/08/23 13:31:04;;;;;;;3.47;2.60;;;33.80;36.50;;;;;;6119334;23;20417;-89
2022/08/23 13:33:31;;;;;;;5.40;3.10;;;33.70;36.40;;;;;;6120896;23;20472;-88